sensor_id;sensor_type;location;lat;lon;timestamp;P1;durP1;ratioP1;P2;durP2;ratioP2
11082;SDS011;5595;50.186;8.468;2022-09-09T00:02:13;1.55;;;0.47;;
11082;SDS011;5595;50.186;8.468;2022-09-09T00:04:47;3.28;;;0.60;;
11082;SDS011;5595;50.186;8.468;2022-09-09T00:07:25;6.05;;;0.90;;
11082;SDS011;5595;50.186;8.468;2022-09-09T00:10:07;3.40;;;0.80;;
11082;SDS011;5595;50.186;8.468;2022-09-09T00:12:44;3.03;;;0.60;;
11082;SDS011;5595;50.186;8.468;2022-09-09T00:15:20;2.40;;;0.70;;
11082;SDS011;5595;50.186;8.468;2022-09-09T00:17:55;2.17;;;0.70;;
11082;SDS011;5595;50.186;8.468;2022-09-09T00:20:29;2.15;;;0.70;;
11082;SDS011;5595;50.186;8.468;2022-09-09T00:23:03;2.00;;;0.68;;
11082;SDS011;5595;50.186;8.468;2022-09-09T00:25:37;2.63;;;0.85;;
11082;SDS011;5595;50.186;8.468;2022-09-09T00:28:12;1.27;;;0.50;;
11082;SDS011;5595;50.186;8.468;2022-09-09T00:30:43;4.65;;;0.77;;
11082;SDS011;5595;50.186;8.468;2022-09-09T00:33:14;1.90;;;0.43;;
11082;SDS011;5595;50.186;8.468;2022-09-09T00:35:47;3.78;;;0.45;;
11082;SDS011;5595;50.186;8.468;2022-09-09T00:38:16;3.40;;;0.60;;
11082;SDS011;5595;50.186;8.468;2022-09-09T00:40:49;1.92;;;0.60;;
11082;SDS011;5595;50.186;8.468;2022-09-09T00:43:24;1.83;;;0.55;;
11082;SDS011;5595;50.186;8.468;2022-09-09T00:46:14;3.47;;;0.70;;
11082;SDS011;5595;50.186;8.468;2022-09-09T00:49:13;2.45;;;0.35;;
11082;SDS011;5595;50.186;8.468;2022-09-09T00:51:47;1.33;;;0.43;;
11082;SDS011;5595;50.186;8.468;2022-09-09T00:54:27;3.92;;;0.50;;
11082;SDS011;5595;50.186;8.468;2022-09-09T00:59:50;1.73;;;0.45;;
11082;SDS011;5595;50.186;8.468;2022-09-09T01:02:24;1.88;;;0.70;;
11082;SDS011;5595;50.186;8.468;2022-09-09T01:04:55;2.97;;;0.50;;
11082;SDS011;5595;50.186;8.468;2022-09-09T01:07:31;3.70;;;0.60;;
11082;SDS011;5595;50.186;8.468;2022-09-09T01:09:58;4.72;;;0.65;;
11082;SDS011;5595;50.186;8.468;2022-09-09T01:12:32;2.85;;;0.40;;
11082;SDS011;5595;50.186;8.468;2022-09-09T01:15:08;3.90;;;0.55;;
11082;SDS011;5595;50.186;8.468;2022-09-09T01:17:40;4.55;;;0.60;;
11082;SDS011;5595;50.186;8.468;2022-09-09T01:20:23;1.83;;;0.60;;
11082;SDS011;5595;50.186;8.468;2022-09-09T01:22:56;3.42;;;0.45;;
11082;SDS011;5595;50.186;8.468;2022-09-09T01:28:43;1.17;;;0.47;;
11082;SDS011;5595;50.186;8.468;2022-09-09T01:31:14;1.08;;;0.30;;
11082;SDS011;5595;50.186;8.468;2022-09-09T01:33:44;5.15;;;0.55;;
11082;SDS011;5595;50.186;8.468;2022-09-09T01:36:12;0.52;;;0.40;;
11082;SDS011;5595;50.186;8.468;2022-09-09T01:38:44;4.03;;;0.47;;
11082;SDS011;5595;50.186;8.468;2022-09-09T01:41:10;2.05;;;0.68;;
11082;SDS011;5595;50.186;8.468;2022-09-09T01:43:39;6.07;;;0.70;;
11082;SDS011;5595;50.186;8.468;2022-09-09T01:46:06;2.67;;;0.73;;
11082;SDS011;5595;50.186;8.468;2022-09-09T01:48:33;1.80;;;0.40;;
11082;SDS011;5595;50.186;8.468;2022-09-09T01:51:02;2.47;;;0.40;;
11082;SDS011;5595;50.186;8.468;2022-09-09T01:53:29;1.80;;;0.50;;
11082;SDS011;5595;50.186;8.468;2022-09-09T01:56:03;3.85;;;0.63;;
11082;SDS011;5595;50.186;8.468;2022-09-09T01:58:41;2.60;;;0.50;;
11082;SDS011;5595;50.186;8.468;2022-09-09T02:01:22;1.48;;;0.45;;
11082;SDS011;5595;50.186;8.468;2022-09-09T02:03:56;1.63;;;0.50;;
11082;SDS011;5595;50.186;8.468;2022-09-09T02:06:26;9.70;;;0.82;;
11082;SDS011;5595;50.186;8.468;2022-09-09T02:08:56;3.58;;;0.82;;
11082;SDS011;5595;50.186;8.468;2022-09-09T02:11:26;2.92;;;0.50;;
11082;SDS011;5595;50.186;8.468;2022-09-09T02:13:57;0.70;;;0.30;;
11082;SDS011;5595;50.186;8.468;2022-09-09T02:16:28;3.67;;;0.50;;
11082;SDS011;5595;50.186;8.468;2022-09-09T02:19:00;1.38;;;0.40;;
11082;SDS011;5595;50.186;8.468;2022-09-09T02:21:30;3.08;;;0.57;;
11082;SDS011;5595;50.186;8.468;2022-09-09T02:24:00;1.15;;;0.50;;
11082;SDS011;5595;50.186;8.468;2022-09-09T02:26:30;2.20;;;0.50;;
11082;SDS011;5595;50.186;8.468;2022-09-09T02:29:01;0.57;;;0.43;;
11082;SDS011;5595;50.186;8.468;2022-09-09T02:31:32;3.47;;;0.60;;
11082;SDS011;5595;50.186;8.468;2022-09-09T02:34:00;3.00;;;0.40;;
11082;SDS011;5595;50.186;8.468;2022-09-09T02:36:30;2.58;;;0.68;;
11082;SDS011;5595;50.186;8.468;2022-09-09T02:39:00;2.40;;;0.73;;
11082;SDS011;5595;50.186;8.468;2022-09-09T02:41:30;5.82;;;0.90;;
11082;SDS011;5595;50.186;8.468;2022-09-09T02:43:58;2.20;;;0.50;;
11082;SDS011;5595;50.186;8.468;2022-09-09T02:46:31;1.95;;;0.60;;
11082;SDS011;5595;50.186;8.468;2022-09-09T02:49:08;2.13;;;0.50;;
11082;SDS011;5595;50.186;8.468;2022-09-09T02:51:39;2.05;;;0.65;;
11082;SDS011;5595;50.186;8.468;2022-09-09T02:54:10;4.00;;;0.40;;
11082;SDS011;5595;50.186;8.468;2022-09-09T02:56:46;2.20;;;0.50;;
11082;SDS011;5595;50.186;8.468;2022-09-09T02:59:19;1.83;;;0.40;;
11082;SDS011;5595;50.186;8.468;2022-09-09T03:01:47;3.47;;;0.63;;
11082;SDS011;5595;50.186;8.468;2022-09-09T03:04:13;4.45;;;0.88;;
11082;SDS011;5595;50.186;8.468;2022-09-09T03:06:40;3.05;;;0.52;;
11082;SDS011;5595;50.186;8.468;2022-09-09T03:09:07;2.55;;;0.50;;
11082;SDS011;5595;50.186;8.468;2022-09-09T03:11:35;3.28;;;0.68;;
11082;SDS011;5595;50.186;8.468;2022-09-09T03:14:03;4.20;;;0.80;;
11082;SDS011;5595;50.186;8.468;2022-09-09T03:16:31;4.68;;;0.60;;
11082;SDS011;5595;50.186;8.468;2022-09-09T03:18:59;2.90;;;0.82;;
11082;SDS011;5595;50.186;8.468;2022-09-09T03:21:26;2.30;;;0.55;;
11082;SDS011;5595;50.186;8.468;2022-09-09T03:23:53;1.83;;;0.45;;
11082;SDS011;5595;50.186;8.468;2022-09-09T03:26:19;1.70;;;0.65;;
11082;SDS011;5595;50.186;8.468;2022-09-09T03:28:46;3.72;;;0.40;;
11082;SDS011;5595;50.186;8.468;2022-09-09T03:31:14;2.47;;;0.63;;
11082;SDS011;5595;50.186;8.468;2022-09-09T03:33:42;1.88;;;0.60;;
11082;SDS011;5595;50.186;8.468;2022-09-09T03:36:09;3.83;;;0.60;;
11082;SDS011;5595;50.186;8.468;2022-09-09T03:38:36;4.50;;;0.55;;
11082;SDS011;5595;50.186;8.468;2022-09-09T03:41:03;5.57;;;0.75;;
11082;SDS011;5595;50.186;8.468;2022-09-09T03:43:33;1.70;;;0.50;;
11082;SDS011;5595;50.186;8.468;2022-09-09T03:45:59;1.92;;;0.68;;
11082;SDS011;5595;50.186;8.468;2022-09-09T03:48:27;1.48;;;0.52;;
11082;SDS011;5595;50.186;8.468;2022-09-09T03:50:55;2.83;;;0.68;;
11082;SDS011;5595;50.186;8.468;2022-09-09T03:53:25;5.45;;;0.60;;
11082;SDS011;5595;50.186;8.468;2022-09-09T03:55:53;2.42;;;0.82;;
11082;SDS011;5595;50.186;8.468;2022-09-09T03:58:24;1.42;;;0.70;;
11082;SDS011;5595;50.186;8.468;2022-09-09T04:00:55;3.50;;;0.70;;
11082;SDS011;5595;50.186;8.468;2022-09-09T04:03:23;4.10;;;0.63;;
11082;SDS011;5595;50.186;8.468;2022-09-09T04:05:51;3.42;;;0.47;;
11082;SDS011;5595;50.186;8.468;2022-09-09T04:08:21;3.35;;;0.80;;
11082;SDS011;5595;50.186;8.468;2022-09-09T04:10:50;2.25;;;0.70;;
11082;SDS011;5595;50.186;8.468;2022-09-09T04:13:17;3.58;;;2.05;;
11082;SDS011;5595;50.186;8.468;2022-09-09T04:15:50;3.20;;;0.80;;
11082;SDS011;5595;50.186;8.468;2022-09-09T04:18:17;5.88;;;0.80;;
11082;SDS011;5595;50.186;8.468;2022-09-09T04:20:45;3.00;;;0.60;;
11082;SDS011;5595;50.186;8.468;2022-09-09T04:23:13;1.45;;;0.52;;
11082;SDS011;5595;50.186;8.468;2022-09-09T04:25:45;3.35;;;0.60;;
11082;SDS011;5595;50.186;8.468;2022-09-09T04:28:13;1.33;;;0.60;;
11082;SDS011;5595;50.186;8.468;2022-09-09T04:30:41;2.80;;;0.88;;
11082;SDS011;5595;50.186;8.468;2022-09-09T04:33:10;4.28;;;0.75;;
11082;SDS011;5595;50.186;8.468;2022-09-09T04:35:38;1.42;;;0.50;;
11082;SDS011;5595;50.186;8.468;2022-09-09T04:38:09;3.95;;;1.08;;
11082;SDS011;5595;50.186;8.468;2022-09-09T04:40:39;4.15;;;0.82;;
11082;SDS011;5595;50.186;8.468;2022-09-09T04:43:11;7.90;;;0.88;;
11082;SDS011;5595;50.186;8.468;2022-09-09T04:45:39;5.55;;;0.80;;
11082;SDS011;5595;50.186;8.468;2022-09-09T04:48:06;4.43;;;0.95;;
11082;SDS011;5595;50.186;8.468;2022-09-09T04:50:33;4.18;;;0.75;;
11082;SDS011;5595;50.186;8.468;2022-09-09T04:53:00;2.30;;;0.70;;
11082;SDS011;5595;50.186;8.468;2022-09-09T04:55:27;3.70;;;0.70;;
11082;SDS011;5595;50.186;8.468;2022-09-09T04:57:55;2.72;;;0.73;;
11082;SDS011;5595;50.186;8.468;2022-09-09T05:00:24;2.33;;;0.73;;
11082;SDS011;5595;50.186;8.468;2022-09-09T05:02:51;3.92;;;0.90;;
11082;SDS011;5595;50.186;8.468;2022-09-09T05:05:18;6.85;;;0.82;;
11082;SDS011;5595;50.186;8.468;2022-09-09T05:07:44;3.47;;;0.70;;
11082;SDS011;5595;50.186;8.468;2022-09-09T05:10:12;7.53;;;0.80;;
11082;SDS011;5595;50.186;8.468;2022-09-09T05:12:41;4.97;;;1.00;;
11082;SDS011;5595;50.186;8.468;2022-09-09T05:15:08;4.70;;;0.85;;
11082;SDS011;5595;50.186;8.468;2022-09-09T05:17:38;3.05;;;0.70;;
11082;SDS011;5595;50.186;8.468;2022-09-09T05:20:05;2.38;;;1.05;;
11082;SDS011;5595;50.186;8.468;2022-09-09T05:22:32;4.57;;;1.00;;
11082;SDS011;5595;50.186;8.468;2022-09-09T05:24:59;2.35;;;0.73;;
11082;SDS011;5595;50.186;8.468;2022-09-09T05:27:28;5.55;;;0.80;;
11082;SDS011;5595;50.186;8.468;2022-09-09T05:29:56;3.65;;;0.60;;
11082;SDS011;5595;50.186;8.468;2022-09-09T05:32:23;3.45;;;1.08;;
11082;SDS011;5595;50.186;8.468;2022-09-09T05:34:52;4.72;;;0.75;;
11082;SDS011;5595;50.186;8.468;2022-09-09T05:37:19;5.07;;;0.63;;
11082;SDS011;5595;50.186;8.468;2022-09-09T05:39:46;3.30;;;0.80;;
11082;SDS011;5595;50.186;8.468;2022-09-09T05:42:13;6.00;;;0.70;;
11082;SDS011;5595;50.186;8.468;2022-09-09T05:44:40;2.97;;;0.80;;
11082;SDS011;5595;50.186;8.468;2022-09-09T05:47:10;4.53;;;0.82;;
11082;SDS011;5595;50.186;8.468;2022-09-09T05:49:36;1.88;;;0.70;;
11082;SDS011;5595;50.186;8.468;2022-09-09T05:52:05;4.05;;;0.80;;
11082;SDS011;5595;50.186;8.468;2022-09-09T05:54:32;2.50;;;0.70;;
11082;SDS011;5595;50.186;8.468;2022-09-09T05:56:58;4.25;;;0.80;;
11082;SDS011;5595;50.186;8.468;2022-09-09T05:59:29;4.15;;;1.13;;
11082;SDS011;5595;50.186;8.468;2022-09-09T06:01:57;3.20;;;0.60;;
11082;SDS011;5595;50.186;8.468;2022-09-09T06:04:24;2.63;;;0.68;;
11082;SDS011;5595;50.186;8.468;2022-09-09T06:06:51;3.72;;;0.60;;
11082;SDS011;5595;50.186;8.468;2022-09-09T06:09:19;4.47;;;0.75;;
11082;SDS011;5595;50.186;8.468;2022-09-09T06:11:46;4.78;;;0.77;;
11082;SDS011;5595;50.186;8.468;2022-09-09T06:14:13;3.40;;;1.00;;
11082;SDS011;5595;50.186;8.468;2022-09-09T06:16:41;5.85;;;0.85;;
11082;SDS011;5595;50.186;8.468;2022-09-09T06:19:09;3.50;;;0.80;;
11082;SDS011;5595;50.186;8.468;2022-09-09T06:21:37;2.63;;;0.70;;
11082;SDS011;5595;50.186;8.468;2022-09-09T06:24:05;3.65;;;0.52;;
11082;SDS011;5595;50.186;8.468;2022-09-09T06:26:35;5.10;;;0.63;;
11082;SDS011;5595;50.186;8.468;2022-09-09T06:29:06;3.38;;;0.70;;
11082;SDS011;5595;50.186;8.468;2022-09-09T06:31:34;2.70;;;0.60;;
11082;SDS011;5595;50.186;8.468;2022-09-09T06:34:03;4.38;;;0.80;;
11082;SDS011;5595;50.186;8.468;2022-09-09T06:36:32;3.25;;;0.85;;
11082;SDS011;5595;50.186;8.468;2022-09-09T06:39:02;3.35;;;0.82;;
11082;SDS011;5595;50.186;8.468;2022-09-09T06:41:29;4.82;;;1.27;;
11082;SDS011;5595;50.186;8.468;2022-09-09T06:43:59;7.43;;;0.80;;
11082;SDS011;5595;50.186;8.468;2022-09-09T06:46:30;4.03;;;1.20;;
11082;SDS011;5595;50.186;8.468;2022-09-09T06:49:00;3.97;;;0.88;;
11082;SDS011;5595;50.186;8.468;2022-09-09T06:51:28;3.90;;;1.40;;
11082;SDS011;5595;50.186;8.468;2022-09-09T06:53:57;3.33;;;1.55;;
11082;SDS011;5595;50.186;8.468;2022-09-09T06:56:28;8.55;;;1.33;;
11082;SDS011;5595;50.186;8.468;2022-09-09T06:58:57;3.55;;;1.30;;
11082;SDS011;5595;50.186;8.468;2022-09-09T07:01:29;4.03;;;0.82;;
11082;SDS011;5595;50.186;8.468;2022-09-09T07:03:58;2.70;;;1.10;;
11082;SDS011;5595;50.186;8.468;2022-09-09T07:06:27;4.75;;;0.90;;
11082;SDS011;5595;50.186;8.468;2022-09-09T07:08:59;3.45;;;1.20;;
11082;SDS011;5595;50.186;8.468;2022-09-09T07:11:29;2.80;;;1.15;;
11082;SDS011;5595;50.186;8.468;2022-09-09T07:14:00;3.22;;;1.38;;
11082;SDS011;5595;50.186;8.468;2022-09-09T07:16:31;4.97;;;1.60;;
11082;SDS011;5595;50.186;8.468;2022-09-09T07:19:02;8.85;;;1.50;;
11082;SDS011;5595;50.186;8.468;2022-09-09T07:21:30;3.55;;;1.27;;
11082;SDS011;5595;50.186;8.468;2022-09-09T07:23:58;5.60;;;1.27;;
11082;SDS011;5595;50.186;8.468;2022-09-09T07:26:27;5.10;;;1.30;;
11082;SDS011;5595;50.186;8.468;2022-09-09T07:28:55;4.00;;;1.25;;
11082;SDS011;5595;50.186;8.468;2022-09-09T07:31:28;2.67;;;1.30;;
11082;SDS011;5595;50.186;8.468;2022-09-09T07:34:00;4.65;;;1.30;;
11082;SDS011;5595;50.186;8.468;2022-09-09T07:36:28;9.35;;;1.50;;
11082;SDS011;5595;50.186;8.468;2022-09-09T07:38:59;5.28;;;1.58;;
11082;SDS011;5595;50.186;8.468;2022-09-09T07:41:28;5.13;;;1.52;;
11082;SDS011;5595;50.186;8.468;2022-09-09T07:43:59;3.55;;;1.10;;
11082;SDS011;5595;50.186;8.468;2022-09-09T07:46:31;4.28;;;1.00;;
11082;SDS011;5595;50.186;8.468;2022-09-09T07:48:59;4.43;;;1.05;;
11082;SDS011;5595;50.186;8.468;2022-09-09T07:51:27;6.38;;;1.60;;
11082;SDS011;5595;50.186;8.468;2022-09-09T07:53:56;6.85;;;1.50;;
11082;SDS011;5595;50.186;8.468;2022-09-09T07:56:24;5.47;;;1.35;;
11082;SDS011;5595;50.186;8.468;2022-09-09T07:58:53;2.25;;;1.23;;
11082;SDS011;5595;50.186;8.468;2022-09-09T08:01:22;5.13;;;1.73;;
11082;SDS011;5595;50.186;8.468;2022-09-09T08:03:56;5.32;;;1.42;;
11082;SDS011;5595;50.186;8.468;2022-09-09T08:06:26;4.05;;;1.13;;
11082;SDS011;5595;50.186;8.468;2022-09-09T08:08:54;4.43;;;1.25;;
11082;SDS011;5595;50.186;8.468;2022-09-09T08:11:23;8.55;;;1.50;;
11082;SDS011;5595;50.186;8.468;2022-09-09T08:13:51;3.85;;;1.50;;
11082;SDS011;5595;50.186;8.468;2022-09-09T08:16:19;3.72;;;1.20;;
11082;SDS011;5595;50.186;8.468;2022-09-09T08:18:49;4.70;;;1.40;;
11082;SDS011;5595;50.186;8.468;2022-09-09T08:21:18;4.22;;;1.40;;
11082;SDS011;5595;50.186;8.468;2022-09-09T08:23:47;5.90;;;1.67;;
11082;SDS011;5595;50.186;8.468;2022-09-09T08:26:17;4.57;;;1.42;;
11082;SDS011;5595;50.186;8.468;2022-09-09T08:28:47;4.50;;;1.67;;
11082;SDS011;5595;50.186;8.468;2022-09-09T08:31:16;4.75;;;1.60;;
11082;SDS011;5595;50.186;8.468;2022-09-09T08:33:44;3.45;;;1.27;;
11082;SDS011;5595;50.186;8.468;2022-09-09T08:36:15;4.93;;;1.73;;
11082;SDS011;5595;50.186;8.468;2022-09-09T08:38:47;2.35;;;1.08;;
11082;SDS011;5595;50.186;8.468;2022-09-09T08:44:22;5.20;;;1.52;;
11082;SDS011;5595;50.186;8.468;2022-09-09T08:46:59;11.57;;;2.25;;
11082;SDS011;5595;50.186;8.468;2022-09-09T08:49:38;10.50;;;2.55;;
11082;SDS011;5595;50.186;8.468;2022-09-09T08:52:27;7.93;;;2.80;;
11082;SDS011;5595;50.186;8.468;2022-09-09T08:54:56;3.78;;;1.70;;
11082;SDS011;5595;50.186;8.468;2022-09-09T08:57:29;9.50;;;2.53;;
11082;SDS011;5595;50.186;8.468;2022-09-09T08:59:58;5.88;;;2.25;;
11082;SDS011;5595;50.186;8.468;2022-09-09T09:02:26;11.73;;;2.90;;
11082;SDS011;5595;50.186;8.468;2022-09-09T09:05:14;8.88;;;2.42;;
11082;SDS011;5595;50.186;8.468;2022-09-09T09:07:51;6.90;;;2.22;;
11082;SDS011;5595;50.186;8.468;2022-09-09T09:10:29;4.22;;;2.13;;
11082;SDS011;5595;50.186;8.468;2022-09-09T09:13:11;4.05;;;2.10;;
11082;SDS011;5595;50.186;8.468;2022-09-09T09:15:42;2.45;;;1.48;;
11082;SDS011;5595;50.186;8.468;2022-09-09T09:18:13;3.13;;;1.65;;
11082;SDS011;5595;50.186;8.468;2022-09-09T09:20:42;6.97;;;1.67;;
11082;SDS011;5595;50.186;8.468;2022-09-09T09:23:24;5.93;;;2.00;;
11082;SDS011;5595;50.186;8.468;2022-09-09T09:25:54;4.75;;;1.70;;
11082;SDS011;5595;50.186;8.468;2022-09-09T09:28:25;5.53;;;1.75;;
11082;SDS011;5595;50.186;8.468;2022-09-09T09:30:56;12.20;;;1.80;;
11082;SDS011;5595;50.186;8.468;2022-09-09T09:33:28;7.13;;;2.03;;
11082;SDS011;5595;50.186;8.468;2022-09-09T09:36:01;8.95;;;2.33;;
11082;SDS011;5595;50.186;8.468;2022-09-09T09:38:29;6.43;;;1.95;;
11082;SDS011;5595;50.186;8.468;2022-09-09T09:40:57;9.48;;;1.75;;
11082;SDS011;5595;50.186;8.468;2022-09-09T09:43:26;6.35;;;2.08;;
11082;SDS011;5595;50.186;8.468;2022-09-09T09:45:55;6.25;;;2.35;;
11082;SDS011;5595;50.186;8.468;2022-09-09T09:48:23;4.57;;;1.70;;
11082;SDS011;5595;50.186;8.468;2022-09-09T09:50:52;4.65;;;1.60;;
11082;SDS011;5595;50.186;8.468;2022-09-09T09:53:21;2.40;;;1.58;;
11082;SDS011;5595;50.186;8.468;2022-09-09T09:55:53;5.22;;;2.30;;
11082;SDS011;5595;50.186;8.468;2022-09-09T09:58:22;5.35;;;1.95;;
11082;SDS011;5595;50.186;8.468;2022-09-09T10:00:51;4.57;;;1.55;;
11082;SDS011;5595;50.186;8.468;2022-09-09T10:03:21;4.80;;;2.30;;
11082;SDS011;5595;50.186;8.468;2022-09-09T10:05:51;3.78;;;1.67;;
11082;SDS011;5595;50.186;8.468;2022-09-09T10:08:19;6.68;;;2.58;;
11082;SDS011;5595;50.186;8.468;2022-09-09T10:10:49;4.57;;;1.80;;
11082;SDS011;5595;50.186;8.468;2022-09-09T10:13:25;6.43;;;1.80;;
11082;SDS011;5595;50.186;8.468;2022-09-09T10:16:02;3.70;;;1.38;;
11082;SDS011;5595;50.186;8.468;2022-09-09T10:18:46;4.68;;;1.48;;
11082;SDS011;5595;50.186;8.468;2022-09-09T10:21:25;5.65;;;1.50;;
11082;SDS011;5595;50.186;8.468;2022-09-09T10:27:14;5.63;;;1.40;;
11082;SDS011;5595;50.186;8.468;2022-09-09T10:29:56;3.78;;;1.10;;
11082;SDS011;5595;50.186;8.468;2022-09-09T10:32:38;6.28;;;1.33;;
11082;SDS011;5595;50.186;8.468;2022-09-09T10:35:12;5.05;;;1.30;;
11082;SDS011;5595;50.186;8.468;2022-09-09T10:37:59;6.38;;;1.25;;
11082;SDS011;5595;50.186;8.468;2022-09-09T10:40:40;4.55;;;1.20;;
11082;SDS011;5595;50.186;8.468;2022-09-09T10:43:16;6.22;;;0.90;;
11082;SDS011;5595;50.186;8.468;2022-09-09T10:45:54;3.53;;;1.05;;
11082;SDS011;5595;50.186;8.468;2022-09-09T10:48:35;6.68;;;1.02;;
11082;SDS011;5595;50.186;8.468;2022-09-09T10:51:26;1.83;;;0.70;;
11082;SDS011;5595;50.186;8.468;2022-09-09T10:54:06;4.10;;;1.27;;
11082;SDS011;5595;50.186;8.468;2022-09-09T10:56:44;4.45;;;1.15;;
11082;SDS011;5595;50.186;8.468;2022-09-09T10:59:24;6.97;;;1.45;;
11082;SDS011;5595;50.186;8.468;2022-09-09T11:01:55;3.65;;;1.25;;
11082;SDS011;5595;50.186;8.468;2022-09-09T11:04:27;2.70;;;0.80;;
11082;SDS011;5595;50.186;8.468;2022-09-09T11:07:00;3.72;;;0.82;;
11082;SDS011;5595;50.186;8.468;2022-09-09T11:09:33;2.78;;;0.80;;
11082;SDS011;5595;50.186;8.468;2022-09-09T11:12:04;5.22;;;0.80;;
11082;SDS011;5595;50.186;8.468;2022-09-09T11:14:40;1.20;;;0.63;;
11082;SDS011;5595;50.186;8.468;2022-09-09T11:17:10;3.63;;;0.70;;
11082;SDS011;5595;50.186;8.468;2022-09-09T11:19:40;2.25;;;0.57;;
11082;SDS011;5595;50.186;8.468;2022-09-09T11:22:14;2.35;;;0.57;;
11082;SDS011;5595;50.186;8.468;2022-09-09T11:24:45;2.05;;;0.75;;
11082;SDS011;5595;50.186;8.468;2022-09-09T11:27:17;4.05;;;0.85;;
11082;SDS011;5595;50.186;8.468;2022-09-09T11:29:56;1.67;;;0.70;;
11082;SDS011;5595;50.186;8.468;2022-09-09T11:32:48;4.25;;;0.63;;
11082;SDS011;5595;50.186;8.468;2022-09-09T11:35:33;4.60;;;0.80;;
11082;SDS011;5595;50.186;8.468;2022-09-09T11:38:15;5.03;;;0.60;;
11082;SDS011;5595;50.186;8.468;2022-09-09T11:40:54;5.07;;;0.50;;
11082;SDS011;5595;50.186;8.468;2022-09-09T11:43:26;2.20;;;0.60;;
11082;SDS011;5595;50.186;8.468;2022-09-09T11:45:58;4.50;;;0.52;;
11082;SDS011;5595;50.186;8.468;2022-09-09T11:48:32;2.38;;;0.50;;
11082;SDS011;5595;50.186;8.468;2022-09-09T11:51:02;5.63;;;0.77;;
11082;SDS011;5595;50.186;8.468;2022-09-09T11:53:35;6.45;;;0.60;;
11082;SDS011;5595;50.186;8.468;2022-09-09T11:56:23;3.47;;;0.50;;
11082;SDS011;5595;50.186;8.468;2022-09-09T11:58:56;2.10;;;0.40;;
11082;SDS011;5595;50.186;8.468;2022-09-09T12:01:33;2.58;;;0.50;;
11082;SDS011;5595;50.186;8.468;2022-09-09T12:04:16;2.28;;;0.50;;
11082;SDS011;5595;50.186;8.468;2022-09-09T12:06:59;5.47;;;0.60;;
11082;SDS011;5595;50.186;8.468;2022-09-09T12:09:33;2.22;;;0.40;;
11082;SDS011;5595;50.186;8.468;2022-09-09T12:12:30;3.13;;;0.50;;
11082;SDS011;5595;50.186;8.468;2022-09-09T12:15:16;4.40;;;0.52;;
11082;SDS011;5595;50.186;8.468;2022-09-09T12:17:48;3.67;;;0.52;;
11082;SDS011;5595;50.186;8.468;2022-09-09T12:20:18;3.28;;;0.73;;
11082;SDS011;5595;50.186;8.468;2022-09-09T12:22:50;3.80;;;0.73;;
11082;SDS011;5595;50.186;8.468;2022-09-09T12:25:32;3.10;;;0.50;;
11082;SDS011;5595;50.186;8.468;2022-09-09T12:28:11;4.10;;;0.50;;
11082;SDS011;5595;50.186;8.468;2022-09-09T12:30:46;5.20;;;0.68;;
11082;SDS011;5595;50.186;8.468;2022-09-09T12:33:22;3.38;;;0.60;;
11082;SDS011;5595;50.186;8.468;2022-09-09T12:35:50;2.72;;;0.70;;
11082;SDS011;5595;50.186;8.468;2022-09-09T12:38:22;2.33;;;0.50;;
11082;SDS011;5595;50.186;8.468;2022-09-09T12:40:56;5.25;;;0.73;;
11082;SDS011;5595;50.186;8.468;2022-09-09T12:43:26;4.63;;;0.70;;
11082;SDS011;5595;50.186;8.468;2022-09-09T12:45:54;3.55;;;0.82;;
11082;SDS011;5595;50.186;8.468;2022-09-09T12:48:29;1.38;;;0.50;;
11082;SDS011;5595;50.186;8.468;2022-09-09T12:51:00;2.88;;;0.45;;
11082;SDS011;5595;50.186;8.468;2022-09-09T12:53:29;2.83;;;0.70;;
11082;SDS011;5595;50.186;8.468;2022-09-09T12:55:59;6.38;;;0.50;;
11082;SDS011;5595;50.186;8.468;2022-09-09T12:58:30;6.93;;;0.57;;
11082;SDS011;5595;50.186;8.468;2022-09-09T13:01:00;2.15;;;0.45;;
11082;SDS011;5595;50.186;8.468;2022-09-09T13:03:32;1.30;;;0.40;;
11082;SDS011;5595;50.186;8.468;2022-09-09T13:06:10;2.75;;;0.52;;
11082;SDS011;5595;50.186;8.468;2022-09-09T13:08:42;3.33;;;0.57;;
11082;SDS011;5595;50.186;8.468;2022-09-09T13:11:09;7.65;;;0.80;;
11082;SDS011;5595;50.186;8.468;2022-09-09T13:13:41;4.93;;;0.60;;
11082;SDS011;5595;50.186;8.468;2022-09-09T13:16:18;6.47;;;0.80;;
11082;SDS011;5595;50.186;8.468;2022-09-09T13:18:49;2.58;;;0.50;;
11082;SDS011;5595;50.186;8.468;2022-09-09T13:21:17;1.00;;;0.30;;
11082;SDS011;5595;50.186;8.468;2022-09-09T13:23:48;4.32;;;0.30;;
11082;SDS011;5595;50.186;8.468;2022-09-09T13:26:20;1.40;;;0.28;;
11082;SDS011;5595;50.186;8.468;2022-09-09T13:28:49;1.33;;;0.40;;
11082;SDS011;5595;50.186;8.468;2022-09-09T13:31:21;1.98;;;0.50;;
11082;SDS011;5595;50.186;8.468;2022-09-09T13:33:55;2.33;;;0.32;;
11082;SDS011;5595;50.186;8.468;2022-09-09T13:36:29;2.08;;;0.30;;
11082;SDS011;5595;50.186;8.468;2022-09-09T13:38:59;1.27;;;0.30;;
11082;SDS011;5595;50.186;8.468;2022-09-09T13:41:29;2.30;;;0.28;;
11082;SDS011;5595;50.186;8.468;2022-09-09T13:43:59;1.33;;;0.40;;
11082;SDS011;5595;50.186;8.468;2022-09-09T13:46:32;3.05;;;0.57;;
11082;SDS011;5595;50.186;8.468;2022-09-09T13:49:02;5.00;;;0.47;;
11082;SDS011;5595;50.186;8.468;2022-09-09T13:51:47;3.25;;;0.45;;
11082;SDS011;5595;50.186;8.468;2022-09-09T13:54:19;1.30;;;0.30;;
11082;SDS011;5595;50.186;8.468;2022-09-09T13:56:47;5.05;;;0.50;;
11082;SDS011;5595;50.186;8.468;2022-09-09T13:59:18;2.42;;;0.40;;
11082;SDS011;5595;50.186;8.468;2022-09-09T14:01:46;1.40;;;0.30;;
11082;SDS011;5595;50.186;8.468;2022-09-09T14:04:15;1.13;;;0.40;;
11082;SDS011;5595;50.186;8.468;2022-09-09T14:06:43;2.47;;;0.50;;
11082;SDS011;5595;50.186;8.468;2022-09-09T14:09:11;1.65;;;0.28;;
11082;SDS011;5595;50.186;8.468;2022-09-09T14:11:40;2.33;;;0.38;;
11082;SDS011;5595;50.186;8.468;2022-09-09T14:14:07;2.90;;;0.30;;
11082;SDS011;5595;50.186;8.468;2022-09-09T14:16:35;2.72;;;0.35;;
11082;SDS011;5595;50.186;8.468;2022-09-09T14:19:02;3.45;;;0.30;;
11082;SDS011;5595;50.186;8.468;2022-09-09T14:21:31;2.33;;;0.30;;
11082;SDS011;5595;50.186;8.468;2022-09-09T14:23:58;3.13;;;0.30;;
11082;SDS011;5595;50.186;8.468;2022-09-09T14:26:25;5.53;;;0.40;;
11082;SDS011;5595;50.186;8.468;2022-09-09T14:28:53;2.95;;;0.43;;
11082;SDS011;5595;50.186;8.468;2022-09-09T14:31:21;2.60;;;0.57;;
11082;SDS011;5595;50.186;8.468;2022-09-09T14:33:48;3.30;;;0.38;;
11082;SDS011;5595;50.186;8.468;2022-09-09T14:36:19;2.88;;;0.38;;
11082;SDS011;5595;50.186;8.468;2022-09-09T14:38:48;1.73;;;0.30;;
11082;SDS011;5595;50.186;8.468;2022-09-09T14:41:18;7.32;;;0.80;;
11082;SDS011;5595;50.186;8.468;2022-09-09T14:43:47;3.25;;;0.50;;
11082;SDS011;5595;50.186;8.468;2022-09-09T14:46:15;1.88;;;0.40;;
11082;SDS011;5595;50.186;8.468;2022-09-09T14:48:44;3.58;;;0.52;;
11082;SDS011;5595;50.186;8.468;2022-09-09T14:51:14;2.53;;;0.43;;
11082;SDS011;5595;50.186;8.468;2022-09-09T14:53:45;1.23;;;0.40;;
11082;SDS011;5595;50.186;8.468;2022-09-09T14:56:14;3.58;;;0.50;;
11082;SDS011;5595;50.186;8.468;2022-09-09T14:58:42;1.23;;;0.30;;
11082;SDS011;5595;50.186;8.468;2022-09-09T15:01:12;2.42;;;0.45;;
11082;SDS011;5595;50.186;8.468;2022-09-09T15:03:40;2.40;;;0.40;;
11082;SDS011;5595;50.186;8.468;2022-09-09T15:06:09;2.60;;;0.40;;
11082;SDS011;5595;50.186;8.468;2022-09-09T15:08:39;1.35;;;0.40;;
11082;SDS011;5595;50.186;8.468;2022-09-09T15:11:17;0.95;;;0.30;;
11082;SDS011;5595;50.186;8.468;2022-09-09T15:13:45;7.30;;;2.25;;
11082;SDS011;5595;50.186;8.468;2022-09-09T15:16:12;3.10;;;0.95;;
11082;SDS011;5595;50.186;8.468;2022-09-09T15:18:41;2.55;;;0.55;;
11082;SDS011;5595;50.186;8.468;2022-09-09T15:21:10;1.33;;;0.30;;
11082;SDS011;5595;50.186;8.468;2022-09-09T15:23:37;2.15;;;0.40;;
11082;SDS011;5595;50.186;8.468;2022-09-09T15:26:05;4.72;;;0.40;;
11082;SDS011;5595;50.186;8.468;2022-09-09T15:28:35;4.53;;;0.57;;
11082;SDS011;5595;50.186;8.468;2022-09-09T15:31:09;3.22;;;0.47;;
11082;SDS011;5595;50.186;8.468;2022-09-09T15:33:39;1.92;;;0.40;;
11082;SDS011;5595;50.186;8.468;2022-09-09T15:36:13;2.00;;;0.30;;
11082;SDS011;5595;50.186;8.468;2022-09-09T15:38:42;3.60;;;0.40;;